Dixie, Missouri
Current Conditions -  °F | °C
As of 7:53 PM on Friday 24 Oct 2014 (Local Time) from KJEF Reporting Station
Clear Clear  
Wind Chill: 65°   Ceiling: Unl
Heat Index: 65°   Visibility: 10mi
Dew Point: 58°   Wind: 5mph
Humidity: 78%   Direction: 110°ESE
Pressure: 29.98"   Gusts: NA
Location:  38.718°N, 92.0861°W
Report Text: KJEF 250053Z 11004KT 10SM CLR 18/14 A2998 RMK AO2 SLP143 T01830144
Loading
Personal Weather Stations






























Interactive Weather Map
Tropical Storm Tracking
New forecast layout! Learn more

10-Day Weather Forecast

Advertisements
Track Severe Weather on mobile